Terminal Aerodrome Forecast
Issued by NWS

Current Version | Previous Version | Text Only | Print | Product List | Glossary On
Versions: 1 2 3 4 5 6 7 8 9 10 11 12 13 14
000
FTUS46 KSGX 251800 AAA
TAFTRM
TAF AMD
KTRM 251859Z 2519/2618 33006KT P6SM FEW200
     FM261200 35008KT P6SM VCSH SCT050 OVC100
     FM261600 11010KT P6SM -SHRA BKN040 OVC080=

USA.gov is the U.S. government's official web portal to all federal, state and local government web resources and services.